Time;durP1;ratioP1;P1;durP2;ratioP2;P2;SDS_P1;SDS_P2;PMS_P1;PMS_P2;Temp;Humidity;BMP_temperature;BMP_pressure;BME280_temperature;BME280_humidity;BME280_pressure;Samples;Min_cycle;Max_cycle;Signal;HPM_P1;HPM_P2
2023/05/10 00:00:13;;;;;;;;;;;14.00;99.90;;;;;;8384558;28;19924;-72
2023/05/10 00:04:15;;;;;;;;;;;14.10;99.90;;;;;;8384855;28;19975;-72
2023/05/10 00:08:17;;;;;;;;;;;14.00;99.90;;;;;;8380620;28;19956;-73
2023/05/10 00:12:18;;;;;;;;;;;14.10;99.90;;;;;;8382067;28;19939;-73
2023/05/10 00:16:20;;;;;;;;;;;14.00;99.90;;;;;;8376658;28;19935;-72
2023/05/10 00:20:22;;;;;;;;;;;14.00;99.90;;;;;;8384635;28;19928;-72
2023/05/10 00:24:23;;;;;;;;;;;14.00;99.90;;;;;;8384697;28;19933;-73
2023/05/10 00:28:26;;;;;;;;;;;14.00;99.90;;;;;;8388852;28;20018;-73
2023/05/10 00:32:28;;;;;;;;;;;14.00;99.90;;;;;;8390444;28;19932;-73
2023/05/10 00:36:31;;;;;;;;;;;14.00;99.90;;;;;;8382194;28;19932;-73
2023/05/10 00:40:32;;;;;;;;;;;14.00;99.90;;;;;;8385948;28;19924;-72
2023/05/10 00:44:34;;;;;;;;;;;14.00;99.90;;;;;;8383531;28;19967;-73
2023/05/10 00:48:36;;;;;;;;;;;13.90;99.90;;;;;;8375365;28;20023;-73
2023/05/10 00:52:38;;;;;;;;;;;13.90;99.90;;;;;;8386447;28;19924;-73
2023/05/10 00:56:40;;;;;;;;;;;13.90;99.90;;;;;;8382446;28;19935;-73
2023/05/10 01:00:43;;;;;;;;;;;13.90;99.90;;;;;;8386708;28;19935;-73
2023/05/10 01:04:44;;;;;;;;;;;13.90;99.90;;;;;;8374387;28;20452;-72
2023/05/10 01:08:47;;;;;;;;;;;13.90;99.90;;;;;;8365117;28;19935;-73
2023/05/10 01:12:48;;;;;;;;;;;13.90;99.90;;;;;;8382577;28;20014;-73
2023/05/10 01:16:50;;;;;;;;;;;13.90;99.90;;;;;;8376335;28;19932;-73
2023/05/10 01:20:59;;;;;;;;;;;13.80;99.90;;;;;;8387148;28;19928;-73
2023/05/10 01:25:00;;;;;;;;;;;13.80;99.90;;;;;;8382761;28;19928;-73
2023/05/10 01:29:02;;;;;;;;;;;13.80;99.90;;;;;;8386444;28;20439;-73
2023/05/10 01:33:07;;;;;;;;;;;13.80;99.90;;;;;;8379165;28;20024;-73
2023/05/10 01:37:15;;;;;;;;;;;13.80;99.90;;;;;;8383228;28;20386;-73
2023/05/10 01:41:16;;;;;;;;;;;13.80;99.90;;;;;;8382342;28;20625;-73
2023/05/10 01:45:18;;;;;;;;;;;13.80;99.90;;;;;;8388502;28;19960;-73
2023/05/10 01:49:23;;;;;;;;;;;13.80;99.90;;;;;;8381287;28;20646;-73
2023/05/10 01:53:25;;;;;;;;;;;13.80;99.90;;;;;;8363171;28;19933;-73
2023/05/10 01:57:30;;;;;;;;;;;13.70;99.90;;;;;;8385203;28;20027;-74
2023/05/10 02:01:33;;;;;;;;;;;13.60;99.90;;;;;;8384056;28;19979;-73
2023/05/10 02:05:35;;;;;;;;;;;13.50;99.90;;;;;;8390804;28;19924;-74
2023/05/10 02:09:37;;;;;;;;;;;13.50;99.90;;;;;;8393360;28;19928;-74
2023/05/10 02:13:40;;;;;;;;;;;13.50;99.90;;;;;;8390630;28;19975;-73
2023/05/10 02:17:41;;;;;;;;;;;13.50;99.90;;;;;;8390354;28;20028;-73
2023/05/10 02:21:45;;;;;;;;;;;13.40;99.90;;;;;;8368505;28;19979;-72
2023/05/10 02:25:48;;;;;;;;;;;13.30;99.90;;;;;;8370394;28;19929;-73
2023/05/10 02:29:50;;;;;;;;;;;13.30;99.90;;;;;;8379967;28;19936;-74
2023/05/10 02:33:53;;;;;;;;;;;13.30;99.90;;;;;;8382541;28;19936;-73
2023/05/10 02:37:56;;;;;;;;;;;13.30;99.90;;;;;;8385808;28;20022;-73
2023/05/10 02:41:58;;;;;;;;;;;13.20;99.90;;;;;;8382160;28;19990;-73
2023/05/10 02:45:59;;;;;;;;;;;13.20;99.90;;;;;;8386235;28;19928;-73
2023/05/10 02:50:01;;;;;;;;;;;13.20;99.90;;;;;;8386397;28;20015;-74
2023/05/10 02:54:18;;;;;;;;;;;13.20;99.90;;;;;;8389917;28;20424;-74
2023/05/10 02:58:20;;;;;;;;;;;13.10;99.90;;;;;;8382569;28;19924;-73
2023/05/10 03:02:22;;;;;;;;;;;13.10;99.90;;;;;;8383588;28;20023;-73
2023/05/10 03:06:24;;;;;;;;;;;13.10;99.90;;;;;;8382399;28;19936;-74
2023/05/10 03:10:27;;;;;;;;;;;13.10;99.90;;;;;;8382655;28;19943;-74
2023/05/10 03:14:29;;;;;;;;;;;13.20;99.90;;;;;;8384274;28;19932;-74
2023/05/10 03:18:49;;;;;;;;;;;13.20;99.90;;;;;;8368107;28;20332;-74
2023/05/10 03:23:02;;;;;;;;;;;13.20;99.90;;;;;;8372555;28;20011;-74
2023/05/10 03:27:04;;;;;;;;;;;13.20;99.90;;;;;;8367508;28;19928;-73
2023/05/10 03:31:06;;;;;;;;;;;13.20;99.90;;;;;;8371598;28;20575;-73
2023/05/10 03:35:08;;;;;;;;;;;13.20;99.90;;;;;;8365691;28;19929;-73
2023/05/10 03:39:10;;;;;;;;;;;13.20;99.90;;;;;;8370885;28;20070;-74
2023/05/10 03:43:11;;;;;;;;;;;13.20;99.90;;;;;;8367018;28;20383;-73
2023/05/10 03:47:13;;;;;;;;;;;13.20;99.90;;;;;;8359677;28;19929;-74
2023/05/10 03:51:15;;;;;;;;;;;13.30;99.90;;;;;;8394120;28;19931;-73
2023/05/10 03:55:17;;;;;;;;;;;13.30;99.90;;;;;;8388605;28;19947;-73
2023/05/10 03:59:19;;;;;;;;;;;13.30;99.90;;;;;;8388884;28;19932;-73
2023/05/10 04:03:20;;;;;;;;;;;13.30;99.90;;;;;;8376265;28;19932;-73
2023/05/10 04:07:22;;;;;;;;;;;13.30;99.90;;;;;;8388122;28;20417;-73
2023/05/10 04:11:24;;;;;;;;;;;13.30;99.90;;;;;;8371763;28;19928;-73
2023/05/10 04:15:26;;;;;;;;;;;13.30;99.90;;;;;;8382952;28;19928;-74
2023/05/10 04:19:31;;;;;;;;;;;13.30;99.90;;;;;;8382487;28;20063;-73
2023/05/10 04:23:33;;;;;;;;;;;13.30;99.90;;;;;;8373400;28;20322;-73
2023/05/10 04:27:34;;;;;;;;;;;13.40;99.90;;;;;;8381065;28;20032;-73
2023/05/10 04:31:36;;;;;;;;;;;13.30;99.90;;;;;;8365574;28;19933;-73
2023/05/10 04:35:39;;;;;;;;;;;13.30;99.90;;;;;;8375309;28;19976;-73
2023/05/10 04:39:41;;;;;;;;;;;13.30;99.90;;;;;;8358436;28;19943;-73
2023/05/10 04:43:43;;;;;;;;;;;13.30;99.90;;;;;;8376510;28;19925;-73
2023/05/10 04:47:44;;;;;;;;;;;13.30;99.90;;;;;;8372921;28;20256;-74
2023/05/10 04:51:46;;;;;;;;;;;13.30;99.90;;;;;;8373286;28;21189;-73
2023/05/10 04:55:48;;;;;;;;;;;13.40;99.90;;;;;;8379574;28;20467;-73
2023/05/10 04:59:50;;;;;;;;;;;13.30;99.90;;;;;;8380857;28;19990;-73
2023/05/10 05:03:52;;;;;;;;;;;13.30;99.90;;;;;;8369395;28;20403;-73
2023/05/10 05:07:54;;;;;;;;;;;13.40;99.90;;;;;;8357800;28;19928;-73
2023/05/10 05:11:56;;;;;;;;;;;13.40;99.90;;;;;;8372361;28;20022;-73
2023/05/10 05:15:59;;;;;;;;;;;13.40;99.90;;;;;;8341772;28;19940;-73
2023/05/10 05:20:02;;;;;;;;;;;13.40;99.90;;;;;;8373278;28;19939;-73
2023/05/10 05:24:03;;;;;;;;;;;13.50;99.90;;;;;;8367993;28;19928;-73
2023/05/10 05:28:05;;;;;;;;;;;13.50;99.90;;;;;;8358907;28;19925;-73
2023/05/10 05:32:08;;;;;;;;;;;13.40;99.90;;;;;;8377505;28;20353;-73
2023/05/10 05:36:10;;;;;;;;;;;13.40;99.90;;;;;;8372144;28;19933;-73
2023/05/10 05:40:14;;;;;;;;;;;13.40;99.90;;;;;;8373706;28;19975;-73
2023/05/10 05:44:16;;;;;;;;;;;13.50;99.90;;;;;;8373469;28;19933;-73
2023/05/10 05:48:17;;;;;;;;;;;13.40;99.90;;;;;;8375731;28;20384;-72
2023/05/10 05:52:19;;;;;;;;;;;13.40;99.90;;;;;;8376099;28;19933;-73
2023/05/10 05:56:24;;;;;;;;;;;13.50;99.90;;;;;;8359284;28;19932;-73
2023/05/10 06:00:25;;;;;;;;;;;13.50;99.90;;;;;;8364670;28;19928;-73
2023/05/10 06:04:27;;;;;;;;;;;13.40;99.90;;;;;;8372013;28;19963;-72
2023/05/10 06:08:29;;;;;;;;;;;13.40;99.90;;;;;;8368027;28;19924;-73
2023/05/10 06:12:31;;;;;;;;;;;13.40;99.90;;;;;;8382680;28;19925;-72
2023/05/10 06:16:32;;;;;;;;;;;13.40;99.90;;;;;;8380255;28;20040;-73
2023/05/10 06:20:34;;;;;;;;;;;13.40;99.90;;;;;;8382337;28;20019;-73
2023/05/10 06:24:36;;;;;;;;;;;13.40;99.90;;;;;;8382686;28;19928;-73
2023/05/10 06:28:38;;;;;;;;;;;13.40;99.90;;;;;;8351863;28;19967;-73
2023/05/10 06:32:40;;;;;;;;;;;13.40;99.90;;;;;;8380752;28;19976;-73
2023/05/10 06:36:42;;;;;;;;;;;13.40;99.90;;;;;;8382812;28;20013;-73
2023/05/10 06:40:43;;;;;;;;;;;13.40;99.90;;;;;;8386341;28;19971;-72
2023/05/10 06:44:45;;;;;;;;;;;13.40;99.90;;;;;;8376354;28;19931;-73
2023/05/10 06:48:47;;;;;;;;;;;13.50;99.90;;;;;;8378939;28;20016;-73
2023/05/10 06:52:48;;;;;;;;;;;13.60;99.90;;;;;;8380257;28;19972;-72
2023/05/10 06:56:53;;;;;;;;;;;13.60;99.90;;;;;;8381320;28;19931;-73
2023/05/10 07:01:01;;;;;;;;;;;13.70;99.90;;;;;;8368120;28;20300;-73
2023/05/10 07:05:03;;;;;;;;;;;13.70;99.90;;;;;;8380250;28;19924;-73
2023/05/10 07:09:04;;;;;;;;;;;13.70;99.90;;;;;;8365425;28;19925;-73
2023/05/10 07:13:06;;;;;;;;;;;13.80;99.90;;;;;;8368651;28;19929;-73
2023/05/10 07:17:08;;;;;;;;;;;13.80;99.90;;;;;;8394620;28;19982;-73
2023/05/10 07:21:10;;;;;;;;;;;13.80;99.90;;;;;;8382071;28;19954;-73
2023/05/10 07:25:11;;;;;;;;;;;13.90;99.90;;;;;;8385005;28;19924;-73
2023/05/10 07:29:13;;;;;;;;;;;14.00;99.90;;;;;;8384963;28;19925;-73
2023/05/10 07:33:15;;;;;;;;;;;14.00;99.90;;;;;;8386858;28;19932;-72
2023/05/10 07:37:17;;;;;;;;;;;14.10;99.90;;;;;;8365527;28;20541;-73
2023/05/10 07:41:18;;;;;;;;;;;14.10;99.90;;;;;;8370755;28;19933;-73
2023/05/10 07:45:20;;;;;;;;;;;14.10;99.90;;;;;;8387689;28;19928;-73
2023/05/10 07:49:24;;;;;;;;;;;14.20;99.90;;;;;;8395983;28;19932;-72
2023/05/10 07:53:26;;;;;;;;;;;14.20;99.90;;;;;;8393407;28;20257;-73
2023/05/10 07:57:27;;;;;;;;;;;14.20;99.90;;;;;;8379486;28;20372;-73
2023/05/10 08:01:30;;;;;;;;;;;14.10;99.90;;;;;;8381963;28;19932;-73
2023/05/10 08:05:31;;;;;;;;;;;14.10;99.90;;;;;;8379868;28;20396;-72
2023/05/10 08:09:35;;;;;;;;;;;14.10;99.90;;;;;;8378627;28;19934;-73
2023/05/10 08:13:37;;;;;;;;;;;14.10;99.90;;;;;;8385748;28;20007;-73
2023/05/10 08:17:39;;;;;;;;;;;14.20;99.90;;;;;;8371896;28;20255;-72
2023/05/10 08:21:42;;;;;;;;;;;14.30;99.90;;;;;;8385897;28;19955;-73
2023/05/10 08:25:43;;;;;;;;;;;14.30;99.90;;;;;;8388661;28;19924;-73
2023/05/10 08:29:45;;;;;;;;;;;14.40;99.90;;;;;;8377861;28;20019;-73
2023/05/10 08:33:52;;;;;;;;;;;14.40;99.90;;;;;;8380485;28;20284;-73
2023/05/10 08:37:54;;;;;;;;;;;14.40;99.90;;;;;;8374847;28;21978;-73
2023/05/10 08:52:03;;;;;;;;;;;14.60;99.90;;;;;;8384387;28;19935;-73
2023/05/10 08:56:06;;;;;;;;;;;14.60;99.90;;;;;;8380796;28;19924;-73
2023/05/10 09:00:08;;;;;;;;;;;14.60;99.90;;;;;;8382016;28;19935;-73
2023/05/10 09:04:09;;;;;;;;;;;14.60;99.90;;;;;;8375397;28;19990;-73
2023/05/10 09:08:12;;;;;;;;;;;14.70;99.90;;;;;;8365505;28;19939;-73
2023/05/10 09:12:16;;;;;;;;;;;14.70;99.90;;;;;;8355120;28;20279;-73
2023/05/10 09:16:17;;;;;;;;;;;14.80;99.90;;;;;;8360697;28;19933;-73
2023/05/10 09:20:22;;;;;;;;;;;14.80;99.90;;;;;;8353463;28;19933;-73
2023/05/10 09:24:27;;;;;;;;;;;14.90;99.90;;;;;;8344786;28;19935;-74
2023/05/10 09:28:31;;;;;;;;;;;14.90;99.90;;;;;;8355872;28;20023;-73
2023/05/10 09:32:46;;;;;;;;;;;15.00;99.90;;;;;;8349387;28;20022;-73
2023/05/10 09:36:56;;;;;;;;;;;15.00;99.90;;;;;;8354758;28;19962;-73
2023/05/10 09:40:57;;;;;;;;;;;15.00;99.90;;;;;;8349109;28;19924;-73
2023/05/10 09:45:06;;;;;;;;;;;15.10;99.90;;;;;;8342623;28;19937;-73
2023/05/10 09:49:08;;;;;;;;;;;15.10;99.90;;;;;;8369322;28;19925;-73
2023/05/10 09:53:14;;;;;;;;;;;15.10;99.90;;;;;;8356529;28;20295;-73
2023/05/10 09:57:19;;;;;;;;;;;15.20;99.90;;;;;;8344171;28;19928;-74
2023/05/10 10:01:25;;;;;;;;;;;15.30;99.90;;;;;;8356782;28;19979;-73
2023/05/10 10:05:33;;;;;;;;;;;15.30;99.90;;;;;;8352105;28;19925;-73
2023/05/10 10:09:35;;;;;;;;;;;15.40;99.90;;;;;;8351377;28;19999;-72
2023/05/10 10:13:37;;;;;;;;;;;15.50;99.90;;;;;;8365453;28;20378;-73
2023/05/10 10:17:39;;;;;;;;;;;15.60;99.90;;;;;;8361023;28;19932;-73
2023/05/10 10:21:41;;;;;;;;;;;15.60;99.90;;;;;;8357833;28;20269;-73
2023/05/10 10:25:44;;;;;;;;;;;15.70;99.90;;;;;;8355990;28;19935;-73
2023/05/10 10:30:01;;;;;;;;;;;15.70;99.90;;;;;;8367113;28;19924;-73
2023/05/10 10:34:07;;;;;;;;;;;15.70;99.90;;;;;;8358854;28;20451;-73
2023/05/10 10:38:09;;;;;;;;;;;15.70;99.90;;;;;;8361555;28;19956;-73
2023/05/10 10:42:10;;;;;;;;;;;15.60;99.90;;;;;;8347382;28;19928;-71
2023/05/10 10:46:16;;;;;;;;;;;15.60;99.90;;;;;;8378234;28;19925;-72
2023/05/10 10:50:18;;;;;;;;;;;15.50;99.90;;;;;;8365266;28;19925;-71
2023/05/10 10:54:27;;;;;;;;;;;15.50;99.90;;;;;;8347014;28;19939;-72
2023/05/10 10:58:30;;;;;;;;;;;15.70;99.90;;;;;;8357919;28;20303;-71
2023/05/10 11:02:33;;;;;;;;;;;15.80;99.90;;;;;;8362427;28;20372;-72
2023/05/10 11:06:35;;;;;;;;;;;16.00;99.90;;;;;;8358455;28;20399;-71
2023/05/10 11:10:37;;;;;;;;;;;16.10;99.90;;;;;;8348783;28;20312;-72
2023/05/10 11:14:39;;;;;;;;;;;16.30;99.90;;;;;;8354002;28;19964;-71
2023/05/10 11:18:51;;;;;;;;;;;16.40;99.90;;;;;;8365180;28;20031;-71
2023/05/10 11:22:53;;;;;;;;;;;16.50;99.90;;;;;;8357986;28;19935;-71
2023/05/10 11:26:56;;;;;;;;;;;16.80;99.90;;;;;;8348487;28;19928;-71
2023/05/10 11:30:57;;;;;;;;;;;17.00;99.90;;;;;;8359876;28;20043;-71
2023/05/10 11:34:59;;;;;;;;;;;17.40;99.90;;;;;;8352335;28;19979;-70
2023/05/10 11:39:02;;;;;;;;;;;17.60;99.90;;;;;;8354263;28;19939;-73
2023/05/10 11:43:04;;;;;;;;;;;17.60;99.90;;;;;;8360397;28;19968;-72
2023/05/10 11:47:06;;;;;;;;;;;17.50;99.90;;;;;;8368195;28;20027;-73
2023/05/10 11:51:07;;;;;;;;;;;17.40;99.90;;;;;;8371818;28;20023;-71
2023/05/10 11:55:09;;;;;;;;;;;17.40;99.90;;;;;;8348336;28;21816;-71
2023/05/10 11:59:14;;;;;;;;;;;17.20;99.90;;;;;;8366661;28;20394;-72
2023/05/10 12:03:15;;;;;;;;;;;17.20;99.90;;;;;;8373376;28;20394;-71
2023/05/10 12:07:17;;;;;;;;;;;17.10;99.90;;;;;;8382885;28;19947;-71
2023/05/10 12:11:20;;;;;;;;;;;17.10;99.90;;;;;;8369395;28;19930;-72
2023/05/10 12:15:23;;;;;;;;;;;17.10;99.90;;;;;;8383449;28;19951;-71
2023/05/10 12:19:24;;;;;;;;;;;17.10;99.90;;;;;;8363985;28;19928;-71
2023/05/10 12:23:26;;;;;;;;;;;17.00;99.90;;;;;;8371636;28;19964;-72
2023/05/10 12:27:31;;;;;;;;;;;16.80;99.90;;;;;;8378164;28;19925;-73
2023/05/10 12:31:54;;;;;;;;;;;16.70;99.90;;;;;;8374409;28;20411;-72
2023/05/10 12:35:59;;;;;;;;;;;16.40;99.90;;;;;;8374021;28;19925;-72
2023/05/10 12:40:00;;;;;;;;;;;16.20;99.90;;;;;;8389550;28;19978;-72
2023/05/10 12:44:02;;;;;;;;;;;16.10;99.90;;;;;;8378645;28;20355;-71
2023/05/10 12:48:04;;;;;;;;;;;15.90;99.90;;;;;;8378962;28;19971;-72
2023/05/10 12:52:05;;;;;;;;;;;15.80;99.90;;;;;;8376732;28;20388;-72
2023/05/10 12:56:07;;;;;;;;;;;15.70;99.90;;;;;;8357284;28;20036;-72
2023/05/10 13:00:09;;;;;;;;;;;15.60;99.90;;;;;;8372115;28;19924;-72
2023/05/10 13:04:10;;;;;;;;;;;15.60;99.90;;;;;;8384918;28;20531;-72
2023/05/10 13:08:12;;;;;;;;;;;15.60;99.90;;;;;;8356411;28;19931;-72
2023/05/10 13:12:14;;;;;;;;;;;15.60;99.90;;;;;;8362281;28;20303;-72
2023/05/10 13:16:15;;;;;;;;;;;15.60;99.90;;;;;;8380466;28;19924;-73
2023/05/10 13:20:17;;;;;;;;;;;15.50;99.90;;;;;;8358512;28;19967;-71
2023/05/10 13:24:19;;;;;;;;;;;15.40;99.90;;;;;;8367663;28;20419;-72
2023/05/10 13:28:21;;;;;;;;;;;15.40;99.90;;;;;;8339604;28;19939;-72
2023/05/10 13:32:22;;;;;;;;;;;15.30;99.90;;;;;;8371060;28;20383;-72
2023/05/10 13:36:24;;;;;;;;;;;15.30;99.90;;;;;;8371967;28;21541;-71
2023/05/10 13:40:25;;;;;;;;;;;15.30;99.90;;;;;;8373033;28;19928;-72
2023/05/10 13:44:27;;;;;;;;;;;15.40;99.90;;;;;;8376734;28;19924;-72
2023/05/10 13:48:28;;;;;;;;;;;15.40;99.90;;;;;;8366564;28;20276;-72
2023/05/10 13:52:30;;;;;;;;;;;15.50;99.90;;;;;;8353222;28;19933;-71
2023/05/10 13:56:32;;;;;;;;;;;15.50;99.90;;;;;;8365171;28;19929;-71
2023/05/10 14:00:33;;;;;;;;;;;15.60;99.90;;;;;;8345624;28;19978;-70
2023/05/10 14:04:35;;;;;;;;;;;15.60;99.90;;;;;;8364459;28;20449;-70
2023/05/10 14:08:37;;;;;;;;;;;15.60;99.90;;;;;;8347670;28;19931;-71
2023/05/10 14:12:38;;;;;;;;;;;15.60;99.90;;;;;;8365554;28;19932;-71
2023/05/10 14:16:41;;;;;;;;;;;15.70;99.90;;;;;;8355787;28;20043;-75
2023/05/10 14:20:43;;;;;;;;;;;15.70;99.90;;;;;;8355233;28;20509;-72
2023/05/10 14:24:46;;;;;;;;;;;15.70;99.90;;;;;;8368041;28;19978;-71
2023/05/10 14:28:48;;;;;;;;;;;15.70;99.90;;;;;;8356215;28;20513;-72
2023/05/10 14:32:50;;;;;;;;;;;15.70;99.90;;;;;;8372097;28;20018;-73
2023/05/10 14:36:51;;;;;;;;;;;15.70;99.90;;;;;;8363195;28;19940;-67
2023/05/10 14:40:53;;;;;;;;;;;15.80;99.90;;;;;;8339105;28;19933;-65
2023/05/10 14:44:55;;;;;;;;;;;15.80;99.90;;;;;;8353629;28;19925;-67
2023/05/10 14:48:56;;;;;;;;;;;15.90;99.90;;;;;;8351738;28;19932;-70
2023/05/10 14:52:58;;;;;;;;;;;16.10;99.90;;;;;;8367781;28;20023;-73
2023/05/10 14:57:00;;;;;;;;;;;16.20;99.90;;;;;;8355456;28;19999;-71
2023/05/10 15:01:02;;;;;;;;;;;16.30;99.90;;;;;;8366354;28;19973;-68
2023/05/10 15:05:04;;;;;;;;;;;16.40;99.90;;;;;;8359242;28;20047;-77
2023/05/10 15:09:05;;;;;;;;;;;16.40;99.90;;;;;;8367769;28;19935;-72
2023/05/10 15:13:07;;;;;;;;;;;16.40;99.90;;;;;;8363333;28;19955;-76
2023/05/10 15:17:09;;;;;;;;;;;16.40;99.90;;;;;;8372964;28;19932;-73
2023/05/10 15:21:11;;;;;;;;;;;16.50;99.90;;;;;;8372209;28;20997;-72
2023/05/10 15:25:14;;;;;;;;;;;16.50;99.90;;;;;;8379812;28;19924;-74
2023/05/10 15:29:19;;;;;;;;;;;16.50;99.90;;;;;;8380619;28;19928;-74
2023/05/10 15:33:21;;;;;;;;;;;16.60;99.90;;;;;;8363550;28;19933;-74
2023/05/10 15:37:23;;;;;;;;;;;16.60;99.90;;;;;;8378242;28;19928;-72
2023/05/10 15:41:25;;;;;;;;;;;16.60;99.90;;;;;;8374732;28;19986;-74
2023/05/10 15:45:26;;;;;;;;;;;16.60;99.90;;;;;;8368305;28;20472;-74
2023/05/10 15:49:28;;;;;;;;;;;16.60;99.90;;;;;;8365117;28;20390;-75
2023/05/10 15:53:30;;;;;;;;;;;16.50;99.90;;;;;;8380859;28;19925;-75
2023/05/10 15:57:31;;;;;;;;;;;16.50;99.90;;;;;;8365222;28;20046;-75
2023/05/10 16:01:34;;;;;;;;;;;16.70;99.90;;;;;;8355190;28;19925;-75
2023/05/10 16:05:36;;;;;;;;;;;16.70;99.90;;;;;;8364255;28;19933;-75
2023/05/10 16:09:37;;;;;;;;;;;16.70;99.90;;;;;;8368601;28;20035;-75
2023/05/10 16:13:39;;;;;;;;;;;16.80;99.90;;;;;;8359684;28;19932;-76
2023/05/10 16:17:41;;;;;;;;;;;16.80;99.90;;;;;;8362022;28;19928;-75
2023/05/10 16:21:43;;;;;;;;;;;16.80;99.90;;;;;;8372185;28;20015;-75
2023/05/10 16:25:44;;;;;;;;;;;16.80;99.90;;;;;;8376185;28;19933;-75
2023/05/10 16:29:46;;;;;;;;;;;16.90;99.90;;;;;;8384040;28;19935;-75
2023/05/10 16:33:48;;;;;;;;;;;16.90;99.90;;;;;;8378672;28;19925;-74
2023/05/10 16:37:50;;;;;;;;;;;16.90;99.90;;;;;;8378613;28;20012;-73
2023/05/10 16:41:51;;;;;;;;;;;16.90;99.90;;;;;;8363869;28;20394;-73
2023/05/10 16:45:53;;;;;;;;;;;17.10;99.90;;;;;;8360845;28;20352;-74
2023/05/10 16:49:55;;;;;;;;;;;17.40;99.90;;;;;;8354645;28;19935;-74
2023/05/10 16:53:56;;;;;;;;;;;17.60;99.90;;;;;;8354713;28;20011;-74
2023/05/10 16:57:59;;;;;;;;;;;18.30;99.90;;;;;;8360543;28;19946;-74
2023/05/10 17:02:01;;;;;;;;;;;19.20;99.90;;;;;;8368252;28;19956;-77
2023/05/10 17:06:04;;;;;;;;;;;19.70;99.90;;;;;;8363498;28;20667;-77
2023/05/10 17:10:06;;;;;;;;;;;19.90;99.90;;;;;;8354561;28;20553;-77
2023/05/10 17:14:08;;;;;;;;;;;19.70;99.90;;;;;;8357878;28;19971;-77
2023/05/10 17:18:10;;;;;;;;;;;19.30;99.90;;;;;;8351191;28;19931;-76
2023/05/10 17:22:12;;;;;;;;;;;19.30;99.90;;;;;;8362478;28;19943;-76
2023/05/10 17:26:14;;;;;;;;;;;19.20;99.90;;;;;;8380762;28;19929;-77
2023/05/10 17:30:21;;;;;;;;;;;19.10;99.90;;;;;;8369238;28;19925;-76
2023/05/10 17:34:23;;;;;;;;;;;19.00;99.90;;;;;;8364648;28;19960;-76
2023/05/10 17:38:24;;;;;;;;;;;18.90;99.90;;;;;;8367107;28;19932;-76
2023/05/10 17:42:26;;;;;;;;;;;18.80;99.90;;;;;;8362098;28;19972;-76
2023/05/10 17:46:28;;;;;;;;;;;18.60;99.90;;;;;;8365153;28;19981;-76
2023/05/10 17:50:31;;;;;;;;;;;18.40;99.90;;;;;;8351757;28;19964;-76
2023/05/10 17:54:33;;;;;;;;;;;18.30;99.90;;;;;;8352610;28;19924;-76
2023/05/10 17:58:37;;;;;;;;;;;18.10;99.90;;;;;;8350827;28;19928;-76
2023/05/10 18:02:38;;;;;;;;;;;18.00;99.90;;;;;;8367876;28;19938;-76
2023/05/10 18:06:40;;;;;;;;;;;17.80;99.90;;;;;;8362689;28;20484;-76
2023/05/10 18:10:42;;;;;;;;;;;17.80;99.90;;;;;;8370071;28;20276;-76
2023/05/10 18:14:43;;;;;;;;;;;17.70;99.90;;;;;;8368199;28;19929;-77
2023/05/10 18:18:45;;;;;;;;;;;17.60;99.90;;;;;;8348263;28;19961;-76
2023/05/10 18:22:47;;;;;;;;;;;17.50;99.90;;;;;;8359372;28;21029;-76
2023/05/10 18:26:49;;;;;;;;;;;17.40;99.90;;;;;;8358629;28;19964;-76
2023/05/10 18:30:50;;;;;;;;;;;17.30;99.90;;;;;;8344518;28;20380;-76
2023/05/10 18:34:52;;;;;;;;;;;17.20;99.90;;;;;;8352778;28;19928;-76
2023/05/10 18:38:56;;;;;;;;;;;17.10;99.90;;;;;;8360971;28;19924;-77
2023/05/10 18:42:58;;;;;;;;;;;17.10;99.90;;;;;;8358397;28;19947;-76
2023/05/10 18:47:00;;;;;;;;;;;17.10;99.90;;;;;;8367453;28;19933;-76
2023/05/10 18:51:02;;;;;;;;;;;17.00;99.90;;;;;;8362482;28;20299;-77
2023/05/10 18:55:04;;;;;;;;;;;16.90;99.90;;;;;;8345775;28;19935;-77
2023/05/10 18:59:05;;;;;;;;;;;16.90;99.90;;;;;;8361705;28;20019;-76
2023/05/10 19:03:07;;;;;;;;;;;16.80;99.90;;;;;;8353405;28;20663;-77
2023/05/10 19:07:08;;;;;;;;;;;16.80;99.90;;;;;;8366810;28;20443;-77
2023/05/10 19:16:16;;;;;;;;;;;16.70;99.90;;;;;;8359163;28;19985;-77
2023/05/10 19:20:23;;;;;;;;;;;16.60;99.90;;;;;;8362823;28;20023;-77
2023/05/10 19:24:26;;;;;;;;;;;16.60;99.90;;;;;;8366258;28;19932;-76
2023/05/10 19:28:27;;;;;;;;;;;16.50;99.90;;;;;;8366545;28;20044;-76
2023/05/10 19:32:29;;;;;;;;;;;16.50;99.90;;;;;;8359425;28;19933;-76
2023/05/10 19:36:31;;;;;;;;;;;16.50;99.90;;;;;;8361994;28;19938;-77
2023/05/10 19:40:33;;;;;;;;;;;16.40;99.90;;;;;;8360290;28;19993;-77
2023/05/10 19:44:35;;;;;;;;;;;16.40;99.90;;;;;;8346834;28;20300;-76
2023/05/10 19:48:37;;;;;;;;;;;16.30;99.90;;;;;;8363293;28;20444;-77
2023/05/10 19:52:39;;;;;;;;;;;16.30;99.90;;;;;;8364847;28;19924;-77
2023/05/10 19:56:41;;;;;;;;;;;16.20;99.90;;;;;;8364465;28;19928;-77
2023/05/10 20:00:42;;;;;;;;;;;16.20;99.90;;;;;;8356508;28;20023;-77
2023/05/10 20:04:44;;;;;;;;;;;16.20;99.90;;;;;;8338828;28;20004;-76
2023/05/10 20:08:46;;;;;;;;;;;16.10;99.90;;;;;;8355881;28;20015;-77
2023/05/10 20:12:51;;;;;;;;;;;16.00;99.90;;;;;;8356486;28;19936;-76
2023/05/10 20:16:53;;;;;;;;;;;15.90;99.90;;;;;;8341811;28;19933;-77
2023/05/10 20:20:56;;;;;;;;;;;15.80;99.90;;;;;;8380593;28;19978;-76
2023/05/10 20:24:58;;;;;;;;;;;15.80;99.90;;;;;;8356731;28;19975;-76
2023/05/10 20:28:59;;;;;;;;;;;15.80;99.90;;;;;;8344081;28;20323;-78
2023/05/10 20:33:02;;;;;;;;;;;15.80;99.90;;;;;;8350850;28;20106;-78
2023/05/10 20:37:04;;;;;;;;;;;15.80;99.90;;;;;;8364969;28;19924;-78
2023/05/10 20:41:06;;;;;;;;;;;15.80;99.90;;;;;;8366186;28;19925;-78
2023/05/10 20:45:08;;;;;;;;;;;15.70;99.90;;;;;;8358276;28;20340;-78
2023/05/10 20:49:10;;;;;;;;;;;15.70;99.90;;;;;;8367292;28;19933;-78
2023/05/10 20:53:13;;;;;;;;;;;15.70;99.90;;;;;;8358622;28;19948;-78
2023/05/10 20:57:14;;;;;;;;;;;15.70;99.90;;;;;;8362720;28;20350;-78
2023/05/10 21:01:16;;;;;;;;;;;15.60;99.90;;;;;;8355876;28;19925;-78
2023/05/10 21:05:18;;;;;;;;;;;15.60;99.90;;;;;;8376599;28;19924;-79
2023/05/10 21:09:20;;;;;;;;;;;15.60;99.90;;;;;;8381369;28;19924;-78
2023/05/10 21:13:21;;;;;;;;;;;15.60;99.90;;;;;;8383914;28;19936;-78
2023/05/10 21:17:23;;;;;;;;;;;15.50;99.90;;;;;;8363064;28;20368;-78
2023/05/10 21:21:25;;;;;;;;;;;15.60;99.90;;;;;;8391752;28;19947;-78
2023/05/10 21:25:26;;;;;;;;;;;15.50;99.90;;;;;;8370418;28;19933;-78
2023/05/10 21:29:28;;;;;;;;;;;15.50;99.90;;;;;;8385867;28;20303;-78
2023/05/10 21:33:29;;;;;;;;;;;15.40;99.90;;;;;;8375310;28;19925;-78
2023/05/10 21:37:31;;;;;;;;;;;15.40;99.90;;;;;;8387689;28;19937;-78
2023/05/10 21:41:33;;;;;;;;;;;15.40;99.90;;;;;;8384776;28;19932;-78
2023/05/10 21:45:35;;;;;;;;;;;15.30;99.90;;;;;;8373407;28;19996;-78
2023/05/10 21:49:36;;;;;;;;;;;15.20;99.90;;;;;;8382632;28;19931;-78
2023/05/10 21:53:39;;;;;;;;;;;15.20;99.90;;;;;;8389943;28;19929;-78
2023/05/10 21:57:40;;;;;;;;;;;15.20;99.90;;;;;;8382265;28;19933;-78
2023/05/10 22:01:42;;;;;;;;;;;15.10;99.90;;;;;;8381404;28;19932;-78
2023/05/10 22:05:44;;;;;;;;;;;15.10;99.90;;;;;;8378306;28;19931;-77
2023/05/10 22:09:48;;;;;;;;;;;15.00;99.90;;;;;;8379171;28;20392;-78
2023/05/10 22:13:49;;;;;;;;;;;15.00;99.90;;;;;;8360957;28;20014;-77
2023/05/10 22:17:51;;;;;;;;;;;14.90;99.90;;;;;;8358052;28;19962;-78
2023/05/10 22:21:52;;;;;;;;;;;14.90;99.90;;;;;;8382496;28;19932;-77
2023/05/10 22:25:58;;;;;;;;;;;14.90;99.90;;;;;;8380996;28;19932;-78
2023/05/10 22:30:00;;;;;;;;;;;14.90;99.90;;;;;;8379722;28;19929;-77
2023/05/10 22:34:02;;;;;;;;;;;14.90;99.90;;;;;;8363204;28;19928;-77
2023/05/10 22:38:03;;;;;;;;;;;14.90;99.90;;;;;;8365396;28;19939;-77
2023/05/10 22:42:05;;;;;;;;;;;14.90;99.90;;;;;;8368001;28;19924;-77
2023/05/10 22:46:07;;;;;;;;;;;14.80;99.90;;;;;;8381300;28;19928;-77
2023/05/10 22:50:09;;;;;;;;;;;14.80;99.90;;;;;;8398200;28;20264;-77
2023/05/10 22:54:10;;;;;;;;;;;14.80;99.90;;;;;;8379755;28;20340;-77
2023/05/10 22:58:12;;;;;;;;;;;14.80;99.90;;;;;;8376322;28;20273;-77
2023/05/10 23:02:14;;;;;;;;;;;14.80;99.90;;;;;;8378887;28;19933;-77
2023/05/10 23:06:15;;;;;;;;;;;14.80;99.90;;;;;;8362132;28;19929;-77
2023/05/10 23:10:18;;;;;;;;;;;14.80;99.90;;;;;;8397770;28;19931;-77
2023/05/10 23:14:20;;;;;;;;;;;14.70;99.90;;;;;;8382725;28;19924;-77
2023/05/10 23:18:22;;;;;;;;;;;14.70;99.90;;;;;;8381193;28;19936;-77
2023/05/10 23:22:23;;;;;;;;;;;14.60;99.90;;;;;;8383636;28;20035;-77
2023/05/10 23:26:25;;;;;;;;;;;14.60;99.90;;;;;;8380034;28;19939;-77
2023/05/10 23:30:29;;;;;;;;;;;14.60;99.90;;;;;;8385638;28;19928;-77
2023/05/10 23:34:31;;;;;;;;;;;14.60;99.90;;;;;;8369720;28;19939;-77
2023/05/10 23:38:32;;;;;;;;;;;14.60;99.90;;;;;;8362298;28;19928;-77
2023/05/10 23:42:34;;;;;;;;;;;14.60;99.90;;;;;;8370946;28;19940;-77